Time;durP1;ratioP1;P1;durP2;ratioP2;P2;SDS_P1;SDS_P2;PMS_P1;PMS_P2;Temp;Humidity;BMP_temperature;BMP_pressure;BME280_temperature;BME280_humidity;BME280_pressure;Samples;Min_cycle;Max_cycle;Signal;HPM_P1;HPM_P2
2023/05/15 00:00:33;;;;;;;7.55;5.00;;;8.80;99.90;;;;;;2053513;28;20311;-68
2023/05/15 00:01:34;;;;;;;9.17;5.00;;;8.80;99.90;;;;;;2051086;28;20224;-68
2023/05/15 00:02:36;;;;;;;8.93;5.40;;;8.80;99.90;;;;;;2049875;28;20239;-68
2023/05/15 00:03:37;;;;;;;6.88;5.50;;;8.80;99.90;;;;;;2052771;28;20475;-68
2023/05/15 00:04:38;;;;;;;7.23;5.07;;;8.70;99.90;;;;;;2049397;28;20818;-71
2023/05/15 00:05:39;;;;;;;8.17;5.20;;;8.70;99.90;;;;;;2063185;28;20613;-68
2023/05/15 00:06:40;;;;;;;8.90;5.82;;;8.80;99.90;;;;;;2059937;28;20309;-68
2023/05/15 00:07:42;;;;;;;7.60;5.47;;;8.70;99.90;;;;;;2058617;28;20245;-68
2023/05/15 00:08:44;;;;;;;8.70;5.53;;;8.70;99.90;;;;;;2061842;28;20675;-69
2023/05/15 00:09:44;;;;;;;8.68;5.82;;;8.60;99.90;;;;;;2047834;28;20749;-68
2023/05/15 00:10:45;;;;;;;8.83;5.80;;;8.60;99.90;;;;;;2058174;28;20227;-68
2023/05/15 00:11:46;;;;;;;8.33;5.50;;;8.50;99.90;;;;;;2061617;28;20697;-70
2023/05/15 00:12:46;;;;;;;10.07;5.87;;;8.90;99.90;;;;;;2060341;28;20297;-71
2023/05/15 00:13:48;;;;;;;7.73;5.37;;;8.60;99.90;;;;;;2064743;28;20185;-68
2023/05/15 00:14:48;;;;;;;7.05;4.90;;;8.70;99.90;;;;;;2067549;28;20186;-69
2023/05/15 00:15:50;;;;;;;9.80;5.80;;;8.70;99.90;;;;;;2058887;28;20183;-69
2023/05/15 00:16:51;;;;;;;9.13;5.88;;;8.70;99.90;;;;;;2061337;28;20189;-68
2023/05/15 00:17:52;;;;;;;8.27;5.15;;;8.80;99.90;;;;;;2059191;28;20252;-69
2023/05/15 00:18:53;;;;;;;6.82;4.85;;;8.80;99.90;;;;;;2048831;28;20222;-69
2023/05/15 00:19:56;;;;;;;5.37;4.20;;;8.80;99.90;;;;;;2056822;28;21039;-68
2023/05/15 00:20:57;;;;;;;7.68;4.75;;;8.70;99.90;;;;;;2058583;28;20179;-68
2023/05/15 00:21:57;;;;;;;7.87;5.13;;;8.70;99.90;;;;;;2061479;28;20214;-69
2023/05/15 00:22:58;;;;;;;6.47;4.90;;;8.70;99.90;;;;;;2056941;28;20238;-68
2023/05/15 00:23:59;;;;;;;7.13;4.93;;;8.60;99.90;;;;;;2059736;28;20197;-68
2023/05/15 00:25:00;;;;;;;5.97;4.37;;;8.70;99.90;;;;;;2064621;28;20229;-68
2023/05/15 00:26:00;;;;;;;6.63;4.80;;;8.70;99.90;;;;;;2059959;28;20194;-68
2023/05/15 00:27:02;;;;;;;6.57;4.73;;;8.60;99.90;;;;;;2055330;28;20237;-69
2023/05/15 00:28:02;;;;;;;6.55;4.97;;;8.60;99.90;;;;;;2040899;28;20596;-68
2023/05/15 00:29:03;;;;;;;5.37;3.93;;;8.50;99.90;;;;;;2049711;28;20196;-69
2023/05/15 00:30:05;;;;;;;5.40;4.13;;;8.50;99.90;;;;;;2055747;28;20227;-69
2023/05/15 00:31:07;;;;;;;7.97;4.30;;;8.50;99.90;;;;;;2056322;28;20247;-69
2023/05/15 00:32:08;;;;;;;7.90;4.82;;;8.40;99.90;;;;;;2055613;28;20242;-69
2023/05/15 00:33:10;;;;;;;5.70;4.50;;;8.50;99.90;;;;;;2056702;28;20321;-68
2023/05/15 00:34:11;;;;;;;6.40;4.28;;;8.40;99.90;;;;;;2056491;28;20244;-68
2023/05/15 00:35:11;;;;;;;5.63;3.60;;;8.40;99.90;;;;;;2047508;28;20743;-68
2023/05/15 00:36:12;;;;;;;5.37;4.03;;;8.40;99.90;;;;;;2057217;28;20236;-70
2023/05/15 00:37:16;;;;;;;5.27;4.10;;;8.30;99.90;;;;;;2050195;28;20231;-68
2023/05/15 00:38:17;;;;;;;6.28;3.85;;;8.30;99.90;;;;;;2055929;28;20233;-69
2023/05/15 00:39:20;;;;;;;5.85;4.25;;;8.20;99.90;;;;;;2048095;28;20233;-68
2023/05/15 00:40:24;;;;;;;8.18;5.50;;;8.20;99.90;;;;;;2055628;28;20230;-69
2023/05/15 00:41:27;;;;;;;6.57;4.93;;;8.20;99.90;;;;;;2058995;28;20747;-68
2023/05/15 00:42:28;;;;;;;7.40;4.85;;;8.20;99.90;;;;;;2053269;28;20234;-68
2023/05/15 00:43:29;;;;;;;8.13;5.10;;;8.20;99.90;;;;;;2054555;28;20240;-68
2023/05/15 00:44:31;;;;;;;6.85;4.68;;;8.30;99.90;;;;;;2053359;28;20313;-68
2023/05/15 00:45:34;;;;;;;6.00;4.55;;;8.40;99.90;;;;;;2060566;28;20257;-68
2023/05/15 00:46:36;;;;;;;7.43;4.93;;;8.30;99.90;;;;;;2044974;28;20235;-69
2023/05/15 00:47:39;;;;;;;10.27;5.78;;;8.30;99.90;;;;;;2054247;28;20243;-68
2023/05/15 00:48:42;;;;;;;8.52;5.53;;;8.30;99.90;;;;;;2059898;28;20230;-68
2023/05/15 00:49:43;;;;;;;8.15;5.90;;;8.40;99.90;;;;;;2052272;28;20235;-69
2023/05/15 00:50:44;;;;;;;7.15;5.45;;;8.40;99.90;;;;;;2056445;28;20633;-68
2023/05/15 00:51:45;;;;;;;7.53;5.40;;;8.40;99.90;;;;;;2048570;28;20269;-68
2023/05/15 00:52:47;;;;;;;7.20;5.90;;;8.40;99.90;;;;;;2060417;28;20223;-68
2023/05/15 00:53:51;;;;;;;7.32;5.22;;;8.50;99.90;;;;;;2061071;28;20193;-68
2023/05/15 00:54:54;;;;;;;10.13;5.43;;;8.50;99.90;;;;;;2055565;28;20633;-68
2023/05/15 00:55:58;;;;;;;7.80;5.63;;;8.50;99.90;;;;;;2059652;28;20270;-68
2023/05/15 00:57:02;;;;;;;7.35;5.45;;;8.70;99.90;;;;;;2055320;28;20210;-68
2023/05/15 00:58:04;;;;;;;5.90;4.35;;;8.60;99.90;;;;;;2040096;29;20176;-69
2023/05/15 00:59:06;;;;;;;7.25;5.10;;;8.60;99.90;;;;;;2042761;28;20199;-68
2023/05/15 01:00:09;;;;;;;8.40;5.55;;;8.60;99.90;;;;;;2048262;28;20690;-68
2023/05/15 01:01:10;;;;;;;7.15;4.78;;;8.60;99.90;;;;;;2049512;28;20238;-68
2023/05/15 01:02:13;;;;;;;6.30;4.43;;;8.70;99.90;;;;;;2054804;28;20223;-68
2023/05/15 01:03:14;;;;;;;8.60;5.43;;;8.70;99.90;;;;;;2048520;28;20234;-69
2023/05/15 01:04:15;;;;;;;7.25;4.68;;;8.70;99.90;;;;;;2051472;28;20267;-68
2023/05/15 01:05:19;;;;;;;6.82;4.70;;;8.70;99.90;;;;;;2060927;28;20363;-67
2023/05/15 01:06:19;;;;;;;7.90;4.93;;;8.60;99.90;;;;;;2068961;28;20692;-68
2023/05/15 01:07:20;;;;;;;7.27;4.90;;;8.70;99.90;;;;;;2069510;28;20242;-68
2023/05/15 01:08:48;;;;;;;5.87;4.23;;;8.70;99.90;;;;;;2062582;28;20283;-68
2023/05/15 01:09:51;;;;;;;7.18;4.97;;;8.70;99.90;;;;;;2058197;28;20223;-68
2023/05/15 01:10:54;;;;;;;8.13;5.18;;;8.60;99.90;;;;;;2059605;28;20191;-68
2023/05/15 01:11:59;;;;;;;8.65;4.95;;;8.60;99.90;;;;;;2051076;28;20223;-68
2023/05/15 01:13:02;;;;;;;6.97;5.03;;;8.50;99.90;;;;;;2048415;28;20338;-68
2023/05/15 01:14:05;;;;;;;7.50;5.20;;;8.40;99.90;;;;;;2060165;28;20273;-68
2023/05/15 01:15:07;;;;;;;6.88;4.45;;;8.50;99.90;;;;;;2066926;28;20241;-68
2023/05/15 01:16:10;;;;;;;6.95;5.03;;;8.40;99.90;;;;;;2071712;28;20602;-68
2023/05/15 01:17:11;;;;;;;8.25;4.55;;;8.40;99.90;;;;;;2055203;28;20317;-68
2023/05/15 01:18:12;;;;;;;8.23;5.32;;;8.40;99.90;;;;;;2068983;28;20225;-68
2023/05/15 01:19:13;;;;;;;7.30;5.28;;;8.40;99.90;;;;;;2061331;28;20234;-69
2023/05/15 01:20:18;;;;;;;7.28;5.30;;;8.60;99.90;;;;;;2061936;28;20316;-68
2023/05/15 01:21:35;;;;;;;7.15;5.20;;;8.50;99.90;;;;;;2056781;28;20260;-69
2023/05/15 01:23:23;;;;;;;5.68;4.70;;;8.60;99.90;;;;;;2056211;28;20270;-69
2023/05/15 01:25:05;;;;;;;6.25;4.68;;;8.60;99.90;;;;;;2066568;28;20258;-69
2023/05/15 01:26:56;;;;;;;7.68;4.97;;;8.90;99.90;;;;;;2061716;28;20280;-69
2023/05/15 01:28:08;;;;;;;7.30;4.68;;;8.80;99.90;;;;;;2061097;28;20516;-69
2023/05/15 01:29:36;;;;;;;7.60;5.15;;;8.80;99.90;;;;;;2055683;28;20250;-69
2023/05/15 01:30:41;;;;;;;6.07;4.43;;;8.70;99.90;;;;;;2049562;28;20230;-68
2023/05/15 01:31:47;;;;;;;7.88;5.15;;;8.80;99.90;;;;;;2055088;28;20241;-68
2023/05/15 01:33:17;;;;;;;8.38;5.68;;;8.80;99.90;;;;;;2045941;28;20235;-70
2023/05/15 01:34:22;;;;;;;9.65;5.68;;;8.90;99.90;;;;;;2044593;28;20233;-68
2023/05/15 01:35:44;;;;;;;6.55;4.97;;;8.90;99.90;;;;;;2058640;28;20285;-68
2023/05/15 01:36:50;;;;;;;8.65;5.50;;;9.00;99.90;;;;;;2052530;28;20258;-68
2023/05/15 01:38:06;;;;;;;10.23;6.30;;;9.00;99.90;;;;;;2043708;28;20211;-70
2023/05/15 01:39:10;;;;;;;7.65;5.40;;;9.00;99.90;;;;;;2038981;28;20289;-68
2023/05/15 01:40:14;;;;;;;8.30;6.00;;;9.00;99.90;;;;;;2049539;28;20238;-68
2023/05/15 01:41:49;;;;;;;8.77;5.78;;;9.00;99.90;;;;;;2048246;28;20318;-68
2023/05/15 01:42:55;;;;;;;8.40;5.25;;;9.10;99.90;;;;;;2059403;28;20222;-68
2023/05/15 01:44:04;;;;;;;9.15;6.18;;;9.10;99.90;;;;;;2054850;28;20675;-68
2023/05/15 01:45:10;;;;;;;8.90;6.70;;;9.20;99.90;;;;;;2062340;28;20649;-68
2023/05/15 01:46:18;;;;;;;8.23;5.68;;;9.20;99.90;;;;;;2063738;28;20236;-69
2023/05/15 01:47:37;;;;;;;8.13;5.53;;;9.30;99.90;;;;;;2056947;28;20936;-69
2023/05/15 01:48:39;;;;;;;7.05;5.47;;;9.40;99.90;;;;;;2053228;28;20235;-69
2023/05/15 01:49:44;;;;;;;10.65;5.90;;;9.40;99.90;;;;;;2062125;28;20241;-68
2023/05/15 01:50:46;;;;;;;8.32;5.70;;;9.50;99.90;;;;;;2066968;28;20314;-68
2023/05/15 01:51:52;;;;;;;11.75;6.13;;;9.50;99.90;;;;;;2054426;28;20679;-70
2023/05/15 01:52:56;;;;;;;7.55;4.90;;;9.50;99.90;;;;;;2040192;28;20215;-68
2023/05/15 01:53:58;;;;;;;9.60;5.38;;;9.50;99.90;;;;;;2041817;29;20184;-70
2023/05/15 01:55:03;;;;;;;13.30;7.72;;;9.40;99.90;;;;;;2043688;28;20570;-68
2023/05/15 01:56:08;;;;;;;11.15;5.82;;;9.40;99.90;;;;;;2046244;28;20191;-68
2023/05/15 01:57:10;;;;;;;8.35;5.63;;;9.30;99.90;;;;;;2055380;28;20659;-69
2023/05/15 01:58:12;;;;;;;9.70;5.75;;;9.30;99.90;;;;;;2044682;28;20255;-68
2023/05/15 01:59:15;;;;;;;11.70;6.85;;;9.20;99.90;;;;;;2039945;28;20629;-68
2023/05/15 02:00:17;;;;;;;7.00;4.88;;;9.30;99.90;;;;;;2050928;28;20219;-68
2023/05/15 02:01:19;;;;;;;7.10;5.28;;;9.40;99.90;;;;;;2054114;28;20278;-68
2023/05/15 02:02:22;;;;;;;8.75;5.57;;;9.30;99.90;;;;;;2057833;28;20234;-68
2023/05/15 02:03:25;;;;;;;7.13;5.38;;;9.30;99.90;;;;;;2047261;28;20323;-68
2023/05/15 02:04:27;;;;;;;6.57;4.70;;;9.30;99.90;;;;;;2050420;28;20372;-68
2023/05/15 02:05:29;;;;;;;8.85;5.90;;;9.30;99.90;;;;;;2055494;28;20742;-68
2023/05/15 02:06:31;;;;;;;10.30;6.55;;;9.30;99.90;;;;;;2043750;28;20714;-68
2023/05/15 02:07:32;;;;;;;6.90;5.32;;;9.40;99.90;;;;;;2062328;28;20233;-68
2023/05/15 02:08:34;;;;;;;9.18;5.40;;;9.40;99.90;;;;;;2063958;28;20625;-68
2023/05/15 02:09:36;;;;;;;8.43;5.70;;;9.40;99.90;;;;;;2056349;28;20255;-68
2023/05/15 02:10:38;;;;;;;8.55;5.40;;;9.40;99.90;;;;;;2053219;28;20226;-68
2023/05/15 02:11:40;;;;;;;6.80;4.80;;;9.40;99.90;;;;;;2057209;28;20702;-68
2023/05/15 02:12:42;;;;;;;8.05;5.65;;;9.30;99.90;;;;;;2046266;28;20237;-68
2023/05/15 02:13:43;;;;;;;7.78;5.50;;;9.30;99.90;;;;;;2047717;28;20370;-68
2023/05/15 02:14:49;;;;;;;9.80;5.60;;;9.30;99.90;;;;;;2055898;28;20229;-69
2023/05/15 02:15:50;;;;;;;8.30;5.10;;;9.30;99.90;;;;;;2054943;28;20229;-68
2023/05/15 02:16:51;;;;;;;7.75;5.63;;;9.20;99.90;;;;;;2059623;28;20274;-68
2023/05/15 02:17:54;;;;;;;8.50;5.60;;;9.20;99.90;;;;;;2059946;28;20773;-69
2023/05/15 02:18:55;;;;;;;7.32;5.88;;;9.20;99.90;;;;;;2047779;28;20200;-69
2023/05/15 02:19:55;;;;;;;11.20;6.00;;;9.10;99.90;;;;;;2043452;28;20244;-68
2023/05/15 02:20:59;;;;;;;10.43;5.97;;;9.10;99.90;;;;;;2043140;28;20953;-68
2023/05/15 02:22:00;;;;;;;12.32;7.32;;;9.10;99.90;;;;;;2057363;28;20203;-68
2023/05/15 02:23:01;;;;;;;14.03;6.83;;;8.90;99.90;;;;;;2058548;28;20558;-68
2023/05/15 02:24:02;;;;;;;10.30;6.13;;;9.00;99.90;;;;;;2059739;28;20186;-68
2023/05/15 02:25:05;;;;;;;7.03;5.15;;;8.80;99.90;;;;;;2059914;28;20183;-69
2023/05/15 02:26:11;;;;;;;7.75;5.43;;;8.80;99.90;;;;;;2057506;28;20752;-68
2023/05/15 02:27:27;;;;;;;8.40;5.15;;;8.80;99.90;;;;;;2049970;28;20709;-68
2023/05/15 02:28:54;;;;;;;6.55;4.70;;;8.80;99.90;;;;;;2035134;28;20235;-68
2023/05/15 02:30:25;;;;;;;7.50;5.32;;;8.80;99.90;;;;;;2049312;28;20223;-68
2023/05/15 02:31:37;;;;;;;8.20;4.75;;;8.80;99.90;;;;;;2055900;28;20368;-68
2023/05/15 02:33:05;;;;;;;13.70;6.72;;;8.80;99.90;;;;;;2056447;28;20324;-69
2023/05/15 02:34:24;;;;;;;8.73;6.10;;;8.80;99.90;;;;;;2050513;28;20237;-68
2023/05/15 02:35:37;;;;;;;9.60;5.80;;;8.80;99.90;;;;;;2062433;28;20365;-68
2023/05/15 02:36:44;;;;;;;8.27;5.50;;;8.80;99.90;;;;;;2060052;28;20253;-69
2023/05/15 02:37:53;;;;;;;12.00;5.30;;;8.70;99.90;;;;;;2066828;28;20216;-68
2023/05/15 02:38:55;;;;;;;9.55;5.30;;;8.70;99.90;;;;;;2052365;28;20217;-68
2023/05/15 02:39:58;;;;;;;8.13;5.38;;;8.80;99.90;;;;;;2053335;28;20214;-67
2023/05/15 02:41:00;;;;;;;7.13;5.15;;;8.90;99.90;;;;;;2059317;28;20198;-67
2023/05/15 02:42:02;;;;;;;9.95;5.38;;;8.90;99.90;;;;;;2055583;28;20221;-66
2023/05/15 02:43:04;;;;;;;7.80;5.00;;;8.90;99.90;;;;;;2053061;28;20214;-67
2023/05/15 02:44:06;;;;;;;8.13;5.60;;;8.90;99.90;;;;;;2055140;28;20178;-67
2023/05/15 02:45:09;;;;;;;9.00;5.50;;;8.80;99.90;;;;;;2059621;28;20265;-67
2023/05/15 02:46:11;;;;;;;7.65;5.57;;;8.70;99.90;;;;;;2058229;28;20226;-67
2023/05/15 02:47:13;;;;;;;8.35;5.30;;;8.80;99.90;;;;;;2067051;28;20278;-67
2023/05/15 02:48:16;;;;;;;10.68;5.72;;;8.90;99.90;;;;;;2065111;28;20228;-68
2023/05/15 02:49:16;;;;;;;11.98;6.60;;;8.90;99.90;;;;;;2059514;28;20234;-67
2023/05/15 02:50:18;;;;;;;7.80;5.43;;;9.00;99.90;;;;;;2059575;28;20233;-67
2023/05/15 02:51:19;;;;;;;8.15;5.72;;;8.90;99.90;;;;;;2059892;28;20263;-67
2023/05/15 02:52:23;;;;;;;9.88;6.35;;;8.90;99.90;;;;;;2062575;28;20590;-66
2023/05/15 02:53:24;;;;;;;9.25;5.97;;;8.90;99.90;;;;;;2036085;29;20283;-69
2023/05/15 02:54:24;;;;;;;7.63;5.43;;;8.80;99.90;;;;;;2051664;28;20293;-68
2023/05/15 02:55:25;;;;;;;10.53;6.00;;;8.80;99.90;;;;;;2059650;28;20763;-68
2023/05/15 02:56:26;;;;;;;10.40;6.93;;;8.80;99.90;;;;;;2058055;28;20532;-68
2023/05/15 02:57:27;;;;;;;9.30;5.40;;;8.80;99.90;;;;;;2059351;28;20324;-69
2023/05/15 02:58:28;;;;;;;7.63;5.60;;;8.80;99.90;;;;;;2050058;28;20234;-67
2023/05/15 02:59:28;;;;;;;7.60;5.53;;;8.80;99.90;;;;;;2049225;28;20270;-69
2023/05/15 03:00:30;;;;;;;6.47;4.90;;;8.70;99.90;;;;;;2061430;28;20296;-69
2023/05/15 03:01:32;;;;;;;7.82;4.95;;;8.70;99.90;;;;;;2054435;28;20291;-68
2023/05/15 03:02:33;;;;;;;8.75;5.60;;;8.70;99.90;;;;;;2059543;28;20230;-68
2023/05/15 03:03:34;;;;;;;7.40;5.40;;;8.80;99.90;;;;;;2062600;28;20236;-68
2023/05/15 03:04:35;;;;;;;6.40;4.97;;;7.70;99.90;;;;;;2060056;28;20680;-68
2023/05/15 03:05:36;;;;;;;7.75;4.90;;;8.70;99.90;;;;;;2060179;28;20511;-68
2023/05/15 03:06:37;;;;;;;7.47;5.13;;;8.60;99.90;;;;;;2060441;28;20230;-68
2023/05/15 03:07:38;;;;;;;6.33;4.73;;;8.80;99.90;;;;;;2051833;28;20637;-67
2023/05/15 03:08:38;;;;;;;8.77;5.40;;;8.80;99.90;;;;;;2062001;28;20281;-68
2023/05/15 03:09:40;;;;;;;6.60;5.20;;;8.80;99.90;;;;;;2055938;28;20229;-68
2023/05/15 03:10:40;;;;;;;7.30;5.15;;;8.80;99.90;;;;;;2045405;28;20236;-68
2023/05/15 03:11:41;;;;;;;9.23;6.37;;;8.90;99.90;;;;;;2041102;28;20589;-68
2023/05/15 03:12:44;;;;;;;9.37;5.83;;;8.90;99.90;;;;;;2052227;28;20237;-68
2023/05/15 03:13:45;;;;;;;8.48;6.05;;;9.00;99.90;;;;;;2054999;28;20236;-68
2023/05/15 03:14:46;;;;;;;6.53;4.80;;;9.00;99.90;;;;;;2046147;28;20228;-71
2023/05/15 03:15:47;;;;;;;8.25;5.80;;;9.00;99.90;;;;;;2045597;28;20192;-68
2023/05/15 03:16:48;;;;;;;7.27;5.43;;;9.10;99.90;;;;;;2060579;28;20664;-68
2023/05/15 03:17:49;;;;;;;5.72;4.53;;;9.10;99.90;;;;;;2069737;28;20710;-69
2023/05/15 03:18:51;;;;;;;7.43;5.10;;;9.10;99.90;;;;;;2057675;28;20183;-70
2023/05/15 03:19:52;;;;;;;6.88;5.00;;;9.00;99.90;;;;;;2043315;28;20179;-69
2023/05/15 03:20:53;;;;;;;7.07;5.47;;;9.10;99.90;;;;;;2051902;28;20191;-68
2023/05/15 03:21:54;;;;;;;7.13;5.30;;;9.10;99.90;;;;;;2056845;28;20189;-68
2023/05/15 03:22:55;;;;;;;8.23;5.40;;;9.10;99.90;;;;;;2067778;28;20200;-68
2023/05/15 03:23:56;;;;;;;11.30;5.03;;;9.20;99.90;;;;;;2054904;28;20195;-69
2023/05/15 03:24:56;;;;;;;6.03;4.60;;;8.50;99.90;;;;;;2050805;28;20274;-68
2023/05/15 03:25:57;;;;;;;7.13;5.13;;;9.00;99.90;;;;;;2053623;28;20201;-68
2023/05/15 03:26:58;;;;;;;6.00;5.07;;;9.00;99.90;;;;;;2065071;28;20185;-68
2023/05/15 03:28:00;;;;;;;7.23;5.10;;;8.90;99.90;;;;;;2061520;28;20193;-68
2023/05/15 03:29:01;;;;;;;6.97;5.03;;;8.90;99.90;;;;;;2055223;28;20222;-68
2023/05/15 03:30:03;;;;;;;6.60;4.80;;;9.00;99.90;;;;;;2046669;28;20179;-68
2023/05/15 03:31:04;;;;;;;7.15;5.00;;;9.00;99.90;;;;;;2048813;28;20729;-68
2023/05/15 03:32:06;;;;;;;6.85;4.97;;;9.00;99.90;;;;;;2045672;28;20212;-68
2023/05/15 03:33:07;;;;;;;6.57;4.78;;;9.10;99.90;;;;;;2050061;28;20234;-68
2023/05/15 03:34:08;;;;;;;8.40;5.40;;;9.00;99.90;;;;;;2058581;28;20236;-68
2023/05/15 03:35:09;;;;;;;10.07;5.60;;;8.90;99.90;;;;;;2061719;28;20376;-69
2023/05/15 03:36:10;;;;;;;7.10;5.18;;;8.90;99.90;;;;;;2059309;28;20226;-68
2023/05/15 03:37:10;;;;;;;7.83;5.57;;;8.90;99.90;;;;;;2058654;28;20242;-68
2023/05/15 03:38:13;;;;;;;9.37;6.07;;;8.90;99.90;;;;;;2059211;28;20288;-68
2023/05/15 03:39:13;;;;;;;7.68;5.57;;;8.90;99.90;;;;;;2070372;28;20767;-69
2023/05/15 03:40:15;;;;;;;7.60;5.20;;;8.90;99.90;;;;;;2070445;28;20229;-69
2023/05/15 03:41:17;;;;;;;6.90;5.07;;;9.00;99.90;;;;;;2055545;28;20231;-68
2023/05/15 03:42:22;;;;;;;6.82;4.70;;;9.00;99.90;;;;;;2050048;28;20790;-68
2023/05/15 03:43:23;;;;;;;8.82;5.72;;;9.00;99.90;;;;;;2064090;28;20230;-68
2023/05/15 03:44:24;;;;;;;6.93;5.45;;;9.00;99.90;;;;;;2062866;28;20222;-68
2023/05/15 03:45:25;;;;;;;7.87;5.40;;;9.00;99.90;;;;;;2055718;28;20230;-68
2023/05/15 03:46:28;;;;;;;12.40;9.63;;;9.10;99.90;;;;;;2055848;28;20321;-70
2023/05/15 03:47:29;;;;;;;24.98;19.23;;;9.20;99.90;;;;;;2068450;28;20218;-68
2023/05/15 03:48:30;;;;;;;28.73;20.05;;;9.10;99.90;;;;;;2062661;28;20226;-68
2023/05/15 03:49:31;;;;;;;21.70;15.77;;;9.10;99.90;;;;;;2060208;28;20246;-68
2023/05/15 03:50:32;;;;;;;14.07;8.80;;;9.10;99.90;;;;;;2055803;28;20240;-68
2023/05/15 03:51:32;;;;;;;12.50;8.03;;;9.00;99.90;;;;;;2062954;28;20325;-70
2023/05/15 03:52:33;;;;;;;7.87;5.47;;;9.00;99.90;;;;;;2068707;28;20478;-68
2023/05/15 03:53:34;;;;;;;8.87;6.03;;;8.90;99.90;;;;;;2051378;28;20234;-68
2023/05/15 03:54:35;;;;;;;11.80;5.93;;;8.90;99.90;;;;;;2048397;28;20649;-68
2023/05/15 03:55:37;;;;;;;8.07;5.70;;;8.90;99.90;;;;;;2064177;28;20226;-68
2023/05/15 03:56:38;;;;;;;8.80;6.70;;;8.90;99.90;;;;;;2060302;28;20321;-68
2023/05/15 03:57:40;;;;;;;9.70;6.47;;;8.80;99.90;;;;;;2059632;28;20283;-68
2023/05/15 03:58:41;;;;;;;9.15;5.95;;;8.80;99.90;;;;;;2052693;28;20800;-68
2023/05/15 03:59:42;;;;;;;8.97;6.30;;;8.70;99.90;;;;;;2055839;28;20250;-68
2023/05/15 04:00:44;;;;;;;9.17;6.27;;;8.80;99.90;;;;;;2055456;28;20231;-68
2023/05/15 04:01:45;;;;;;;8.20;5.95;;;8.80;99.90;;;;;;2063207;28;20233;-68
2023/05/15 04:02:46;;;;;;;7.57;5.97;;;8.70;99.90;;;;;;2059282;28;20215;-70
2023/05/15 04:03:47;;;;;;;9.30;6.45;;;8.70;99.90;;;;;;2055849;28;20198;-69
2023/05/15 04:04:47;;;;;;;10.30;6.67;;;8.70;99.90;;;;;;2047858;28;20655;-70
2023/05/15 04:05:48;;;;;;;10.13;6.80;;;8.70;99.90;;;;;;2037320;28;20192;-68
2023/05/15 04:06:50;;;;;;;9.88;7.18;;;8.70;99.90;;;;;;2048845;28;20256;-68
2023/05/15 04:07:51;;;;;;;9.60;7.00;;;8.60;99.90;;;;;;2063725;28;20190;-69
2023/05/15 04:08:51;;;;;;;9.97;8.00;;;8.60;99.90;;;;;;2061276;28;20200;-69
2023/05/15 04:09:54;;;;;;;10.85;7.93;;;8.60;99.90;;;;;;2060178;28;20190;-68
2023/05/15 04:10:54;;;;;;;11.85;7.28;;;8.70;99.90;;;;;;2058537;28;20190;-68
2023/05/15 04:11:55;;;;;;;10.40;7.67;;;8.70;99.90;;;;;;2059528;28;20689;-68
2023/05/15 04:12:56;;;;;;;12.63;7.97;;;8.70;99.90;;;;;;2065461;28;20697;-68
2023/05/15 04:13:57;;;;;;;12.67;7.73;;;8.60;99.90;;;;;;2051158;28;20215;-68
2023/05/15 04:15:17;;;;;;;9.40;7.15;;;8.60;99.90;;;;;;2068972;28;20243;-68
2023/05/15 04:16:18;;;;;;;9.35;6.78;;;8.80;99.90;;;;;;2054227;28;20288;-68
2023/05/15 04:17:20;;;;;;;12.13;7.17;;;8.90;99.90;;;;;;2060105;28;20690;-69
2023/05/15 04:18:21;;;;;;;11.23;7.55;;;8.90;99.90;;;;;;2058014;28;20314;-68
2023/05/15 04:19:22;;;;;;;11.43;7.23;;;9.00;99.90;;;;;;2055979;28;20228;-68
2023/05/15 04:20:24;;;;;;;10.87;7.10;;;9.10;99.90;;;;;;2062587;28;20234;-68
2023/05/15 04:21:24;;;;;;;11.07;7.68;;;9.10;99.90;;;;;;2066730;28;20320;-69
2023/05/15 04:22:25;;;;;;;13.52;8.02;;;9.20;99.90;;;;;;2058144;28;20367;-69
2023/05/15 04:23:26;;;;;;;9.10;6.40;;;9.20;99.90;;;;;;2064515;28;20246;-69
2023/05/15 04:24:29;;;;;;;13.45;7.85;;;9.30;99.90;;;;;;2066460;28;20321;-71
2023/05/15 04:25:30;;;;;;;11.27;7.72;;;9.30;99.90;;;;;;2051923;28;20319;-69
2023/05/15 04:26:32;;;;;;;10.20;7.30;;;9.30;99.90;;;;;;2046943;29;20223;-68
2023/05/15 04:27:35;;;;;;;9.18;7.00;;;9.30;99.90;;;;;;2059723;28;20724;-69
2023/05/15 04:28:36;;;;;;;11.93;7.70;;;9.30;99.90;;;;;;2061930;28;20234;-67
2023/05/15 04:29:37;;;;;;;9.85;7.30;;;9.30;99.90;;;;;;2067380;28;20233;-68
2023/05/15 04:30:38;;;;;;;11.57;7.40;;;9.30;99.90;;;;;;2068231;28;20547;-69
2023/05/15 04:31:40;;;;;;;11.00;7.90;;;9.30;99.90;;;;;;2057373;28;20231;-71
2023/05/15 04:32:41;;;;;;;9.88;6.95;;;9.30;99.90;;;;;;2060188;28;20234;-68
2023/05/15 04:33:42;;;;;;;11.50;7.55;;;9.30;99.90;;;;;;2063795;28;20219;-68
2023/05/15 04:34:43;;;;;;;11.87;7.33;;;9.40;99.90;;;;;;2056889;28;20273;-68
2023/05/15 04:35:46;;;;;;;8.70;6.33;;;9.30;99.90;;;;;;2055689;28;20214;-68
2023/05/15 04:36:48;;;;;;;8.95;6.75;;;9.20;99.90;;;;;;2062580;28;20207;-69
2023/05/15 04:37:56;;;;;;;7.93;5.93;;;9.30;99.90;;;;;;2053711;28;20222;-68
2023/05/15 04:38:57;;;;;;;8.70;7.07;;;9.30;99.90;;;;;;2058259;28;20291;-68
2023/05/15 04:39:57;;;;;;;8.17;6.17;;;9.40;99.90;;;;;;2065317;28;20273;-68
2023/05/15 04:41:00;;;;;;;8.97;6.50;;;9.40;99.90;;;;;;2065052;28;20621;-69
2023/05/15 04:42:01;;;;;;;8.18;6.30;;;9.40;99.90;;;;;;2063384;28;20190;-68
2023/05/15 04:43:02;;;;;;;11.63;7.30;;;9.50;99.90;;;;;;2052289;28;20211;-68
2023/05/15 04:44:04;;;;;;;9.23;6.30;;;9.40;99.90;;;;;;2047639;28;20278;-68
2023/05/15 04:45:08;;;;;;;9.32;6.47;;;9.60;99.90;;;;;;2054791;28;30125;-68
2023/05/15 04:46:10;;;;;;;9.73;6.88;;;9.70;99.90;;;;;;2060057;28;20230;-68
2023/05/15 04:47:11;;;;;;;8.30;5.78;;;9.80;99.90;;;;;;2057390;28;20286;-68
2023/05/15 04:48:12;;;;;;;10.02;7.68;;;9.80;99.90;;;;;;2060708;28;20297;-68
2023/05/15 04:49:12;;;;;;;10.17;7.20;;;9.70;99.90;;;;;;2058861;28;20725;-68
2023/05/15 04:50:13;;;;;;;10.17;6.73;;;9.60;99.90;;;;;;2048714;28;20258;-68
2023/05/15 04:51:14;;;;;;;8.07;6.63;;;9.60;99.90;;;;;;2051895;28;20733;-67
2023/05/15 04:52:15;;;;;;;12.00;7.03;;;9.60;99.90;;;;;;2050834;28;20239;-67
2023/05/15 04:53:16;;;;;;;8.57;6.00;;;9.60;99.90;;;;;;2052587;28;20710;-70
2023/05/15 04:54:18;;;;;;;9.40;7.00;;;9.70;99.90;;;;;;2064105;28;20291;-68
2023/05/15 04:55:22;;;;;;;8.02;5.97;;;9.60;99.90;;;;;;2064205;28;20245;-67
2023/05/15 04:56:23;;;;;;;8.68;6.20;;;9.70;99.90;;;;;;2062916;28;20237;-67
2023/05/15 04:57:26;;;;;;;9.48;5.97;;;9.70;99.90;;;;;;2064708;28;20229;-67
2023/05/15 04:58:27;;;;;;;9.68;6.43;;;9.80;99.90;;;;;;2059506;28;20237;-68
2023/05/15 04:59:27;;;;;;;11.68;6.80;;;9.80;99.90;;;;;;2048924;28;20351;-68
2023/05/15 05:00:28;;;;;;;10.00;6.53;;;9.80;99.90;;;;;;2047672;28;20280;-68
2023/05/15 05:01:29;;;;;;;10.20;6.73;;;9.90;99.90;;;;;;2045026;28;20265;-67
2023/05/15 05:02:30;;;;;;;7.32;5.75;;;9.80;99.90;;;;;;2055042;28;20645;-67
2023/05/15 05:03:32;;;;;;;8.00;5.47;;;9.80;99.90;;;;;;2057636;28;20234;-68
2023/05/15 05:04:33;;;;;;;7.93;5.72;;;10.00;99.90;;;;;;2064304;28;20233;-68
2023/05/15 05:05:34;;;;;;;7.50;5.25;;;9.90;99.90;;;;;;2056969;28;20235;-68
2023/05/15 05:06:36;;;;;;;6.73;4.70;;;10.10;99.90;;;;;;2058039;28;20265;-68
2023/05/15 05:07:37;;;;;;;7.38;5.68;;;10.20;99.90;;;;;;2045892;28;20239;-68
2023/05/15 05:08:38;;;;;;;7.77;5.53;;;10.30;99.90;;;;;;2040003;28;20232;-68
2023/05/15 05:09:39;;;;;;;6.80;5.70;;;10.30;99.90;;;;;;2056522;28;20262;-68
2023/05/15 05:10:40;;;;;;;7.95;5.32;;;10.40;99.90;;;;;;2057261;28;20237;-68
2023/05/15 05:11:42;;;;;;;6.73;5.23;;;10.50;99.90;;;;;;2068914;28;20705;-68
2023/05/15 05:12:43;;;;;;;6.88;4.88;;;10.50;99.90;;;;;;2059716;28;20237;-68
2023/05/15 05:13:43;;;;;;;7.93;5.50;;;10.60;99.90;;;;;;2061787;28;20245;-68
2023/05/15 05:14:44;;;;;;;8.90;5.03;;;10.60;99.90;;;;;;2062734;28;20251;-68
2023/05/15 05:15:46;;;;;;;8.20;5.67;;;10.70;99.90;;;;;;2046607;28;20606;-70
2023/05/15 05:16:47;;;;;;;9.38;6.43;;;10.80;99.90;;;;;;2056108;28;20187;-68
2023/05/15 05:17:48;;;;;;;7.57;5.83;;;10.70;99.90;;;;;;2066778;28;20185;-68
2023/05/15 05:18:49;;;;;;;9.82;6.55;;;10.80;99.90;;;;;;2072306;28;20214;-68
2023/05/15 05:19:50;;;;;;;11.30;6.07;;;10.80;99.90;;;;;;2059439;28;20183;-68
2023/05/15 05:21:02;;;;;;;9.67;6.37;;;10.80;99.90;;;;;;2063028;28;20183;-68
2023/05/15 05:22:06;;;;;;;8.45;6.03;;;10.80;99.90;;;;;;2056439;28;20924;-68
2023/05/15 05:23:07;;;;;;;8.05;6.00;;;10.90;99.90;;;;;;2054599;28;20338;-68
2023/05/15 05:24:08;;;;;;;6.73;5.23;;;10.90;99.90;;;;;;2052051;28;20297;-68
2023/05/15 05:25:10;;;;;;;7.78;5.22;;;10.90;99.90;;;;;;2055272;28;20250;-68
2023/05/15 05:26:11;;;;;;;7.75;5.63;;;11.00;99.90;;;;;;2059910;28;20608;-68
2023/05/15 05:27:12;;;;;;;6.83;5.37;;;10.90;99.90;;;;;;2055180;28;20239;-68
2023/05/15 05:28:13;;;;;;;9.60;5.97;;;10.90;99.90;;;;;;2050451;28;20253;-68
2023/05/15 05:29:13;;;;;;;7.27;4.80;;;10.90;99.90;;;;;;2060245;28;20483;-68
2023/05/15 05:30:15;;;;;;;6.27;4.93;;;10.90;99.90;;;;;;2053403;28;20260;-68
2023/05/15 05:31:17;;;;;;;5.57;4.90;;;10.90;99.90;;;;;;2061068;28;20229;-68
2023/05/15 05:32:18;;;;;;;7.30;4.47;;;10.90;99.90;;;;;;2058620;28;21030;-68